Time;durP1;ratioP1;P1;durP2;ratioP2;P2;SDS_P1;SDS_P2;PMS_P1;PMS_P2;Temp;Humidity;BMP_temperature;BMP_pressure;BME280_temperature;BME280_humidity;BME280_pressure;Samples;Min_cycle;Max_cycle;Signal;HPM_P1;HPM_P2
2021/03/30 00:00:47;;;;;;;8.27;7.78;;;;;;;;;;5029682;28;20052;-43
2021/03/30 00:03:14;;;;;;;7.55;7.07;;;;;;;;;;5024450;28;20470;-43
2021/03/30 00:05:41;;;;;;;8.27;7.38;;;;;;;;;;5030239;28;20092;-44
2021/03/30 00:08:07;;;;;;;5.97;5.68;;;;;;;;;;5025005;28;20044;-43
2021/03/30 00:10:35;;;;;;;6.93;6.53;;;;;;;;;;5027987;28;20140;-43
2021/03/30 00:13:03;;;;;;;5.93;5.72;;;;;;;;;;5021697;28;20061;-43
2021/03/30 00:15:29;;;;;;;8.20;7.97;;;;;;;;;;5021477;28;20478;-43
2021/03/30 00:17:56;;;;;;;9.60;8.85;;;;;;;;;;5028294;28;20052;-45
2021/03/30 00:20:22;;;;;;;14.10;13.30;;;;;;;;;;5026065;28;20053;-44
2021/03/30 00:22:48;;;;;;;15.55;14.88;;;;;;;;;;5025554;28;20520;-46
2021/03/30 00:25:15;;;;;;;16.13;15.02;;;;;;;;;;5029775;28;20685;-45
2021/03/30 00:27:41;;;;;;;13.00;12.60;;;;;;;;;;5019330;28;20062;-45
2021/03/30 00:30:09;;;;;;;15.23;14.55;;;;;;;;;;5021000;28;20045;-45
2021/03/30 00:32:36;;;;;;;10.27;9.75;;;;;;;;;;5027418;28;20037;-44
2021/03/30 00:35:03;;;;;;;8.80;8.60;;;;;;;;;;5023530;28;20705;-43
2021/03/30 00:37:34;;;;;;;8.85;8.18;;;;;;;;;;5028500;28;20040;-45
2021/03/30 00:40:00;;;;;;;9.50;8.95;;;;;;;;;;5024077;28;20363;-43
2021/03/30 00:42:26;;;;;;;13.27;12.52;;;;;;;;;;5027189;28;20038;-43
2021/03/30 00:44:53;;;;;;;10.23;9.90;;;;;;;;;;5027489;28;20041;-44
2021/03/30 00:47:20;;;;;;;10.63;10.10;;;;;;;;;;5021757;28;20042;-44
2021/03/30 00:49:48;;;;;;;11.38;10.77;;;;;;;;;;5030544;28;20072;-43
2021/03/30 00:52:14;;;;;;;9.30;8.90;;;;;;;;;;5018197;28;20545;-45
2021/03/30 00:54:41;;;;;;;8.13;7.55;;;;;;;;;;5017406;28;20096;-46
2021/03/30 00:57:07;;;;;;;8.25;7.90;;;;;;;;;;5027384;28;20038;-43
2021/03/30 00:59:33;;;;;;;8.32;8.13;;;;;;;;;;5022097;28;20594;-43
2021/03/30 01:02:00;;;;;;;9.32;8.88;;;;;;;;;;5028599;28;20053;-45
2021/03/30 01:04:27;;;;;;;10.95;10.05;;;;;;;;;;5024453;28;20541;-45
2021/03/30 01:06:53;;;;;;;10.48;9.88;;;;;;;;;;5024948;28;20049;-44
2021/03/30 01:09:19;;;;;;;14.65;13.70;;;;;;;;;;5013063;28;20064;-45
2021/03/30 01:12:11;;;;;;;19.35;18.15;;;;;;;;;;5021921;28;20107;-43
2021/03/30 01:14:46;;;;;;;18.92;17.65;;;;;;;;;;5026158;28;20037;-45
2021/03/30 01:17:25;;;;;;;20.50;19.48;;;;;;;;;;5028372;28;20038;-43
2021/03/30 01:20:01;;;;;;;20.42;19.38;;;;;;;;;;5022629;28;20038;-47
2021/03/30 01:22:51;;;;;;;19.35;18.55;;;;;;;;;;5030618;28;20521;-45
2021/03/30 01:25:18;;;;;;;20.20;19.17;;;;;;;;;;5032868;28;20095;-44
2021/03/30 01:27:47;;;;;;;21.33;20.27;;;;;;;;;;5026809;28;20062;-44
2021/03/30 01:30:15;;;;;;;21.10;20.27;;;;;;;;;;5032547;28;20604;-43
2021/03/30 01:32:44;;;;;;;20.60;19.30;;;;;;;;;;5027286;28;20421;-44
2021/03/30 01:35:13;;;;;;;20.38;19.38;;;;;;;;;;5021606;28;20048;-44
2021/03/30 01:37:41;;;;;;;20.45;19.33;;;;;;;;;;5032286;28;20049;-44
2021/03/30 01:40:08;;;;;;;19.95;19.00;;;;;;;;;;5026082;28;20049;-44
2021/03/30 01:42:36;;;;;;;21.45;20.67;;;;;;;;;;5031257;28;20049;-45
2021/03/30 01:45:03;;;;;;;22.75;21.63;;;;;;;;;;5029972;28;20095;-46
2021/03/30 01:47:30;;;;;;;20.75;19.58;;;;;;;;;;5028823;28;20501;-45
2021/03/30 01:49:57;;;;;;;21.38;20.48;;;;;;;;;;5028818;28;20510;-44
2021/03/30 01:52:24;;;;;;;21.38;20.58;;;;;;;;;;5022180;28;20475;-45
2021/03/30 01:54:51;;;;;;;22.05;20.95;;;;;;;;;;5018625;28;20073;-44
2021/03/30 01:57:23;;;;;;;22.88;21.75;;;;;;;;;;5030109;28;20684;-45
2021/03/30 01:59:51;;;;;;;24.77;23.58;;;;;;;;;;5028065;28;20049;-45
2021/03/30 02:02:18;;;;;;;24.23;22.83;;;;;;;;;;5033661;28;20041;-44
2021/03/30 02:04:44;;;;;;;23.20;22.10;;;;;;;;;;5026774;28;20033;-43
2021/03/30 02:07:13;;;;;;;22.17;21.17;;;;;;;;;;5028869;28;20493;-45
2021/03/30 02:09:43;;;;;;;23.45;22.40;;;;;;;;;;5031158;28;20033;-45
2021/03/30 02:12:17;;;;;;;22.10;20.85;;;;;;;;;;5025858;28;20033;-43
2021/03/30 02:14:45;;;;;;;23.73;22.60;;;;;;;;;;5026712;28;20065;-47
2021/03/30 02:17:11;;;;;;;24.38;23.38;;;;;;;;;;5027055;28;20049;-44
2021/03/30 02:19:47;;;;;;;24.50;23.50;;;;;;;;;;5028558;28;20073;-48
2021/03/30 02:22:29;;;;;;;24.55;23.42;;;;;;;;;;5032298;28;20135;-48
2021/03/30 02:24:56;;;;;;;23.67;22.65;;;;;;;;;;5026464;28;20080;-45
2021/03/30 02:27:24;;;;;;;23.65;22.40;;;;;;;;;;5028016;28;20034;-44
2021/03/30 02:29:52;;;;;;;24.95;23.45;;;;;;;;;;5030817;28;20045;-44
2021/03/30 02:32:19;;;;;;;24.00;22.95;;;;;;;;;;5021890;28;20096;-45
2021/03/30 02:34:47;;;;;;;25.08;24.17;;;;;;;;;;5032419;28;20057;-45
2021/03/30 02:37:15;;;;;;;23.80;22.70;;;;;;;;;;5027147;28;20073;-44
2021/03/30 02:39:42;;;;;;;24.55;23.38;;;;;;;;;;5028500;28;20610;-45
2021/03/30 02:42:09;;;;;;;24.73;23.73;;;;;;;;;;5029517;28;20061;-45
2021/03/30 02:44:36;;;;;;;24.63;23.63;;;;;;;;;;5024045;28;20033;-47
2021/03/30 02:47:03;;;;;;;24.25;23.27;;;;;;;;;;5030812;28;20139;-45
2021/03/30 02:49:29;;;;;;;24.88;24.08;;;;;;;;;;5027122;28;20046;-44
2021/03/30 02:51:57;;;;;;;25.38;23.90;;;;;;;;;;5026799;28;20087;-43
2021/03/30 02:54:25;;;;;;;23.67;22.77;;;;;;;;;;5032250;28;20038;-46
2021/03/30 02:56:51;;;;;;;24.65;23.65;;;;;;;;;;5024584;28;20038;-47
2021/03/30 02:59:18;;;;;;;25.52;24.40;;;;;;;;;;5031051;28;20087;-44
2021/03/30 03:01:45;;;;;;;25.38;24.27;;;;;;;;;;5026975;28;20443;-47
2021/03/30 03:04:12;;;;;;;27.15;25.40;;;;;;;;;;5025416;28;20092;-45
2021/03/30 03:06:40;;;;;;;25.45;24.30;;;;;;;;;;5032660;28;20478;-46
2021/03/30 03:09:06;;;;;;;25.95;24.77;;;;;;;;;;5020328;28;20038;-45
2021/03/30 03:11:33;;;;;;;26.25;25.27;;;;;;;;;;5017186;28;20034;-44
2021/03/30 03:14:00;;;;;;;27.30;26.10;;;;;;;;;;5020423;28;20111;-45
2021/03/30 03:16:26;;;;;;;26.63;25.33;;;;;;;;;;5020160;28;20026;-43
2021/03/30 03:18:53;;;;;;;28.98;27.25;;;;;;;;;;5032347;28;20037;-44
2021/03/30 03:21:24;;;;;;;25.98;24.98;;;;;;;;;;5024837;28;20025;-45
2021/03/30 03:23:50;;;;;;;26.90;25.55;;;;;;;;;;5019471;28;20038;-46
2021/03/30 03:26:17;;;;;;;25.55;24.45;;;;;;;;;;5029921;28;20045;-47
2021/03/30 03:28:44;;;;;;;26.10;25.00;;;;;;;;;;5024616;28;20038;-44
2021/03/30 03:31:11;;;;;;;24.52;23.73;;;;;;;;;;5031272;28;20056;-46
2021/03/30 03:33:37;;;;;;;24.90;23.80;;;;;;;;;;5025645;28;20131;-46
2021/03/30 03:36:09;;;;;;;24.98;23.52;;;;;;;;;;5026120;28;20038;-45
2021/03/30 03:38:39;;;;;;;26.40;25.40;;;;;;;;;;5031131;28;20076;-46
2021/03/30 03:41:10;;;;;;;27.45;25.88;;;;;;;;;;5025622;28;20133;-44
2021/03/30 03:43:37;;;;;;;25.05;23.95;;;;;;;;;;5029800;28;20536;-45
2021/03/30 03:46:03;;;;;;;24.27;23.38;;;;;;;;;;5025994;28;20068;-46
2021/03/30 03:48:29;;;;;;;25.13;24.08;;;;;;;;;;5026346;28;20359;-47
2021/03/30 03:51:00;;;;;;;25.35;24.27;;;;;;;;;;5031048;28;20080;-44
2021/03/30 03:53:27;;;;;;;24.80;23.70;;;;;;;;;;5022769;28;20041;-45
2021/03/30 03:55:55;;;;;;;23.60;22.63;;;;;;;;;;5029036;28;20053;-44
2021/03/30 03:58:27;;;;;;;24.40;23.40;;;;;;;;;;5019161;28;20049;-45
2021/03/30 04:00:53;;;;;;;22.52;21.65;;;;;;;;;;5020727;28;20048;-44
2021/03/30 04:03:27;;;;;;;21.85;20.77;;;;;;;;;;5018902;28;20093;-47
2021/03/30 04:06:16;;;;;;;22.13;20.90;;;;;;;;;;5024380;28;20348;-43
2021/03/30 04:08:48;;;;;;;20.40;19.60;;;;;;;;;;5023696;28;20048;-45
2021/03/30 04:11:15;;;;;;;19.38;18.83;;;;;;;;;;5031214;28;20128;-44
2021/03/30 04:13:43;;;;;;;20.65;19.88;;;;;;;;;;5022734;28;20041;-44
2021/03/30 04:16:10;;;;;;;24.25;23.20;;;;;;;;;;5027158;28;20041;-48
2021/03/30 04:18:38;;;;;;;24.52;23.42;;;;;;;;;;5026698;28;20041;-45
2021/03/30 04:21:06;;;;;;;25.60;24.33;;;;;;;;;;5019639;28;20054;-44
2021/03/30 04:23:41;;;;;;;25.52;24.73;;;;;;;;;;5022873;28;20045;-45
2021/03/30 04:26:07;;;;;;;25.75;24.15;;;;;;;;;;5022763;28;20041;-46
2021/03/30 04:28:34;;;;;;;22.38;21.63;;;;;;;;;;5025554;28;20046;-49
2021/03/30 04:31:00;;;;;;;22.75;21.55;;;;;;;;;;5026710;28;20064;-44
2021/03/30 04:33:26;;;;;;;25.45;24.02;;;;;;;;;;5023294;28;20037;-49
2021/03/30 04:35:53;;;;;;;24.83;23.83;;;;;;;;;;5029399;28;20036;-44
2021/03/30 04:38:19;;;;;;;26.08;24.88;;;;;;;;;;5025547;28;20044;-45
2021/03/30 04:40:52;;;;;;;23.33;22.38;;;;;;;;;;5025706;28;20034;-43
2021/03/30 04:43:22;;;;;;;25.23;24.13;;;;;;;;;;5014266;28;20356;-45
2021/03/30 04:45:48;;;;;;;24.10;23.27;;;;;;;;;;5022651;28;20054;-44
2021/03/30 04:48:14;;;;;;;26.73;25.55;;;;;;;;;;5025207;28;20048;-49
2021/03/30 04:50:41;;;;;;;25.30;24.23;;;;;;;;;;5025023;28;20065;-46
2021/03/30 04:53:08;;;;;;;23.08;22.50;;;;;;;;;;5023639;28;20038;-44
2021/03/30 04:55:34;;;;;;;22.27;21.48;;;;;;;;;;5028622;28;20103;-44
2021/03/30 04:58:00;;;;;;;24.05;23.35;;;;;;;;;;5016842;28;20049;-46
2021/03/30 05:00:27;;;;;;;24.65;23.52;;;;;;;;;;5018884;28;20034;-44
2021/03/30 05:02:53;;;;;;;26.60;25.52;;;;;;;;;;5016969;28;20609;-43
2021/03/30 05:05:20;;;;;;;23.60;22.75;;;;;;;;;;5022258;28;20040;-44
2021/03/30 05:07:46;;;;;;;24.75;23.73;;;;;;;;;;5025422;28;20654;-44
2021/03/30 05:10:12;;;;;;;25.55;24.48;;;;;;;;;;5021910;28;20417;-44
2021/03/30 05:12:39;;;;;;;25.30;24.25;;;;;;;;;;5022125;28;20091;-45
2021/03/30 05:15:06;;;;;;;28.15;26.75;;;;;;;;;;5021387;28;20053;-46
2021/03/30 05:17:33;;;;;;;28.05;26.60;;;;;;;;;;5024505;28;20076;-45
2021/03/30 05:20:00;;;;;;;25.58;24.52;;;;;;;;;;5021401;28;20037;-45
2021/03/30 05:22:27;;;;;;;26.60;25.17;;;;;;;;;;5021332;28;20092;-44
2021/03/30 05:24:53;;;;;;;25.17;24.17;;;;;;;;;;5011780;28;20654;-43
2021/03/30 05:27:19;;;;;;;28.23;26.85;;;;;;;;;;5016683;28;20030;-49
2021/03/30 05:29:46;;;;;;;28.48;27.20;;;;;;;;;;5016690;28;20044;-45
2021/03/30 05:32:16;;;;;;;28.83;27.30;;;;;;;;;;5020654;28;21100;-45
2021/03/30 05:34:46;;;;;;;30.35;28.85;;;;;;;;;;5017685;28;20510;-47
2021/03/30 05:37:13;;;;;;;29.95;28.17;;;;;;;;;;5012533;28;20130;-49
2021/03/30 05:39:39;;;;;;;28.80;27.35;;;;;;;;;;5017642;28;20060;-46
2021/03/30 05:42:05;;;;;;;28.48;26.98;;;;;;;;;;5027006;28;20049;-46
2021/03/30 05:44:33;;;;;;;27.15;25.85;;;;;;;;;;5016022;28;20033;-45
2021/03/30 05:47:17;;;;;;;28.80;27.27;;;;;;;;;;5023569;28;20052;-46
2021/03/30 05:49:44;;;;;;;26.92;25.42;;;;;;;;;;5027933;28;20121;-46
2021/03/30 05:52:18;;;;;;;25.30;24.10;;;;;;;;;;5018278;28;20046;-47
2021/03/30 05:54:45;;;;;;;28.63;27.35;;;;;;;;;;5012557;28;20482;-44
2021/03/30 05:57:13;;;;;;;26.23;25.02;;;;;;;;;;5023186;28;20042;-44
2021/03/30 05:59:45;;;;;;;27.15;25.70;;;;;;;;;;5021110;28;20037;-50
2021/03/30 06:02:37;;;;;;;24.52;23.52;;;;;;;;;;5024369;28;20076;-48
2021/03/30 06:05:04;;;;;;;26.73;25.52;;;;;;;;;;5016253;28;20057;-48
2021/03/30 06:07:30;;;;;;;24.73;23.73;;;;;;;;;;5013971;28;20068;-45
2021/03/30 06:09:58;;;;;;;23.13;22.23;;;;;;;;;;5018375;28;20070;-45
2021/03/30 06:12:24;;;;;;;17.42;16.55;;;;;;;;;;5022134;28;20033;-46
2021/03/30 06:14:50;;;;;;;9.48;9.18;;;;;;;;;;5027173;28;20041;-47
2021/03/30 06:17:17;;;;;;;9.48;8.98;;;;;;;;;;5022834;28;20041;-46
2021/03/30 06:19:47;;;;;;;7.32;7.00;;;;;;;;;;5028551;28;20441;-50
2021/03/30 06:22:13;;;;;;;5.97;5.80;;;;;;;;;;5017998;28;20038;-50
2021/03/30 06:24:41;;;;;;;7.05;6.55;;;;;;;;;;5019130;28;20427;-49
2021/03/30 06:27:07;;;;;;;5.95;5.53;;;;;;;;;;5016238;28;20061;-49
2021/03/30 06:29:38;;;;;;;6.45;5.93;;;;;;;;;;5021663;28;20107;-48
2021/03/30 06:32:08;;;;;;;5.68;5.47;;;;;;;;;;5017080;28;20029;-45
2021/03/30 06:34:35;;;;;;;5.90;5.70;;;;;;;;;;5018885;28;20046;-50
2021/03/30 06:37:22;;;;;;;5.30;5.00;;;;;;;;;;5017932;28;20433;-47
2021/03/30 06:39:48;;;;;;;6.03;5.93;;;;;;;;;;5022720;28;20040;-48
2021/03/30 06:42:26;;;;;;;6.30;5.72;;;;;;;;;;5019096;28;20097;-47
2021/03/30 06:44:52;;;;;;;4.82;4.55;;;;;;;;;;5028337;28;20049;-49
2021/03/30 06:47:20;;;;;;;7.97;4.57;;;;;;;;;;5015397;28;20074;-46
2021/03/30 06:49:53;;;;;;;4.70;4.50;;;;;;;;;;5021220;28;20037;-48
2021/03/30 06:52:33;;;;;;;6.47;5.85;;;;;;;;;;5030698;28;20661;-49
2021/03/30 06:55:23;;;;;;;4.85;4.75;;;;;;;;;;5019008;28;20812;-46
2021/03/30 06:57:50;;;;;;;5.13;4.82;;;;;;;;;;5025819;28;20040;-46
2021/03/30 07:00:16;;;;;;;8.50;4.97;;;;;;;;;;5015696;28;20054;-46
2021/03/30 07:02:49;;;;;;;6.43;6.15;;;;;;;;;;5018131;28;20390;-46
2021/03/30 07:05:23;;;;;;;5.30;4.88;;;;;;;;;;5018065;28;20038;-46
2021/03/30 07:07:57;;;;;;;8.38;7.95;;;;;;;;;;5017526;28;20034;-45
2021/03/30 07:10:34;;;;;;;5.18;5.07;;;;;;;;;;5022587;28;20102;-49
2021/03/30 07:13:01;;;;;;;5.32;4.68;;;;;;;;;;5015353;28;20052;-45
2021/03/30 07:15:28;;;;;;;5.40;4.88;;;;;;;;;;5020673;28;20540;-47
2021/03/30 07:17:58;;;;;;;6.00;5.55;;;;;;;;;;5014870;28;20049;-46
2021/03/30 07:20:25;;;;;;;5.00;4.88;;;;;;;;;;5016400;28;20100;-46
2021/03/30 07:22:52;;;;;;;9.65;8.82;;;;;;;;;;5015673;28;20052;-46
2021/03/30 07:25:22;;;;;;;5.65;5.45;;;;;;;;;;5019567;28;20037;-46
2021/03/30 07:27:59;;;;;;;8.45;5.28;;;;;;;;;;5019415;28;20493;-47
2021/03/30 07:30:26;;;;;;;6.35;5.90;;;;;;;;;;5013858;28;20045;-45
2021/03/30 07:32:58;;;;;;;4.63;4.30;;;;;;;;;;5017027;28;20045;-45
2021/03/30 07:35:28;;;;;;;8.93;8.35;;;;;;;;;;5021600;28;20490;-48
2021/03/30 07:37:59;;;;;;;3.65;3.55;;;;;;;;;;5029124;28;20072;-46
2021/03/30 07:40:26;;;;;;;3.42;3.05;;;;;;;;;;5018557;28;20045;-46
2021/03/30 07:42:52;;;;;;;3.88;3.42;;;;;;;;;;5016898;28;20038;-46
2021/03/30 07:45:20;;;;;;;2.47;2.00;;;;;;;;;;5015870;28;20046;-47
2021/03/30 07:47:47;;;;;;;2.30;2.20;;;;;;;;;;5021666;28;20038;-45
2021/03/30 07:50:15;;;;;;;3.33;1.98;;;;;;;;;;5028466;28;20083;-48
2021/03/30 07:52:49;;;;;;;1.73;1.73;;;;;;;;;;5021758;28;20044;-45
2021/03/30 07:55:16;;;;;;;3.47;1.73;;;;;;;;;;5014419;28;20124;-46
2021/03/30 07:57:58;;;;;;;2.15;1.40;;;;;;;;;;5026120;28;20556;-45
2021/03/30 08:00:30;;;;;;;1.77;1.60;;;;;;;;;;5018674;28;20049;-45
2021/03/30 08:03:05;;;;;;;2.13;2.03;;;;;;;;;;5030339;28;20076;-47
2021/03/30 08:05:31;;;;;;;1.75;1.70;;;;;;;;;;5020510;28;20042;-47
2021/03/30 08:07:58;;;;;;;4.00;2.50;;;;;;;;;;5027446;28;20439;-49
2021/03/30 08:10:34;;;;;;;2.50;2.03;;;;;;;;;;5015810;28;20383;-45
2021/03/30 08:13:32;;;;;;;1.92;1.92;;;;;;;;;;5017492;28;20351;-46
2021/03/30 08:15:59;;;;;;;1.70;1.60;;;;;;;;;;5020603;28;20049;-46
2021/03/30 08:18:27;;;;;;;3.20;1.30;;;;;;;;;;5020161;28;20049;-47
2021/03/30 08:20:53;;;;;;;1.60;1.50;;;;;;;;;;5023715;28;20046;-48
2021/03/30 08:23:20;;;;;;;2.75;1.48;;;;;;;;;;5014403;28;20053;-46
2021/03/30 08:25:50;;;;;;;1.30;1.30;;;;;;;;;;5017897;28;20092;-49
2021/03/30 08:28:45;;;;;;;1.85;1.40;;;;;;;;;;5016999;28;20064;-46
2021/03/30 08:31:12;;;;;;;1.92;1.50;;;;;;;;;;5023657;28;20136;-51
2021/03/30 08:33:40;;;;;;;1.23;1.20;;;;;;;;;;5026776;28;20425;-47
2021/03/30 08:36:25;;;;;;;1.60;1.40;;;;;;;;;;5026362;28;20061;-46
2021/03/30 08:38:56;;;;;;;1.23;1.00;;;;;;;;;;5022889;28;20426;-48
2021/03/30 08:41:41;;;;;;;1.98;1.33;;;;;;;;;;5018748;28;20469;-49
2021/03/30 08:44:11;;;;;;;2.15;0.90;;;;;;;;;;5026967;28;20045;-46
2021/03/30 08:46:38;;;;;;;1.55;1.00;;;;;;;;;;5024370;28;20072;-46
2021/03/30 08:49:31;;;;;;;1.67;1.25;;;;;;;;;;5010843;28;20048;-46
2021/03/30 08:51:59;;;;;;;1.00;1.00;;;;;;;;;;5018921;28;20069;-46
2021/03/30 08:54:30;;;;;;;2.50;1.08;;;;;;;;;;5022781;28;20053;-50
2021/03/30 08:57:16;;;;;;;3.55;1.23;;;;;;;;;;5026791;28;20057;-46
2021/03/30 08:59:45;;;;;;;1.08;1.08;;;;;;;;;;5013571;28;20049;-48
2021/03/30 09:02:12;;;;;;;1.27;1.00;;;;;;;;;;5025093;28;20064;-49
2021/03/30 09:04:39;;;;;;;4.40;1.00;;;;;;;;;;5026064;28;20084;-46
2021/03/30 09:07:07;;;;;;;6.13;1.00;;;;;;;;;;5021983;28;20133;-48
2021/03/30 09:09:35;;;;;;;4.10;1.33;;;;;;;;;;5018353;28;20041;-48
2021/03/30 09:12:03;;;;;;;1.60;1.00;;;;;;;;;;5021694;28;20128;-49
2021/03/30 09:14:29;;;;;;;3.03;1.77;;;;;;;;;;5026411;28;20042;-50
2021/03/30 09:17:06;;;;;;;4.50;0.90;;;;;;;;;;5015459;28;20046;-45
2021/03/30 09:19:38;;;;;;;7.65;0.98;;;;;;;;;;5014212;28;20037;-47
2021/03/30 09:22:25;;;;;;;2.40;0.97;;;;;;;;;;5016742;28;20492;-47
2021/03/30 09:27:29;;;;;;;7.50;1.10;;;;;;;;;;5024664;28;20100;-49
2021/03/30 09:29:56;;;;;;;0.80;0.80;;;;;;;;;;5021234;28;20045;-48
2021/03/30 09:32:24;;;;;;;0.93;0.90;;;;;;;;;;5021840;28;20042;-46
2021/03/30 09:34:51;;;;;;;1.00;1.00;;;;;;;;;;5023612;28;20031;-48
2021/03/30 09:37:17;;;;;;;1.95;0.90;;;;;;;;;;5016147;28;20029;-46
2021/03/30 09:39:44;;;;;;;2.42;0.90;;;;;;;;;;5023394;28;20038;-49
2021/03/30 09:42:11;;;;;;;1.85;0.80;;;;;;;;;;5026372;28;20045;-48
2021/03/30 09:44:42;;;;;;;5.25;0.90;;;;;;;;;;5026468;28;20041;-49
2021/03/30 09:47:12;;;;;;;5.25;0.90;;;;;;;;;;5032614;28;20501;-46
2021/03/30 09:49:41;;;;;;;2.90;0.80;;;;;;;;;;5021174;28;20084;-46
2021/03/30 09:52:07;;;;;;;3.35;0.90;;;;;;;;;;5023132;28;20069;-47
2021/03/30 09:54:41;;;;;;;1.67;0.90;;;;;;;;;;5026230;28;20036;-46
2021/03/30 09:57:16;;;;;;;2.83;0.80;;;;;;;;;;5025119;28;20045;-47
2021/03/30 09:59:46;;;;;;;1.25;0.95;;;;;;;;;;5015017;28;20100;-47
2021/03/30 10:02:13;;;;;;;3.72;0.90;;;;;;;;;;5021634;28;20037;-47
2021/03/30 10:04:40;;;;;;;2.50;0.90;;;;;;;;;;5022501;28;20093;-48
2021/03/30 10:07:13;;;;;;;1.95;0.80;;;;;;;;;;5027683;28;20045;-49
2021/03/30 10:09:59;;;;;;;1.45;0.80;;;;;;;;;;5026513;28;20060;-47
2021/03/30 10:12:31;;;;;;;2.60;0.70;;;;;;;;;;5014916;28;20069;-46
2021/03/30 10:14:58;;;;;;;1.23;0.73;;;;;;;;;;5017990;28;20042;-48
2021/03/30 10:17:26;;;;;;;0.70;0.70;;;;;;;;;;5018238;28;20077;-50
2021/03/30 10:19:54;;;;;;;1.70;0.70;;;;;;;;;;5023726;28;20052;-48
2021/03/30 10:22:21;;;;;;;0.75;0.70;;;;;;;;;;5023474;28;20050;-50
2021/03/30 10:25:09;;;;;;;2.42;0.77;;;;;;;;;;5026494;28;20050;-47
2021/03/30 10:27:39;;;;;;;0.70;0.70;;;;;;;;;;5020107;28;20038;-48
2021/03/30 10:30:06;;;;;;;3.65;0.70;;;;;;;;;;5018606;28;20034;-49
2021/03/30 10:32:52;;;;;;;1.05;0.60;;;;;;;;;;5021677;28;20474;-48
2021/03/30 10:35:18;;;;;;;1.52;0.70;;;;;;;;;;5022101;28;20045;-48
2021/03/30 10:37:45;;;;;;;0.85;0.60;;;;;;;;;;5016118;28;20030;-51
2021/03/30 10:40:11;;;;;;;1.02;0.60;;;;;;;;;;5023751;28;20038;-50
2021/03/30 10:42:40;;;;;;;0.90;0.60;;;;;;;;;;5029153;28;20053;-48
2021/03/30 10:45:08;;;;;;;1.13;1.02;;;;;;;;;;5024855;28;20047;-49
2021/03/30 10:47:37;;;;;;;3.38;0.52;;;;;;;;;;5024806;28;20042;-48
2021/03/30 10:50:07;;;;;;;1.70;0.60;;;;;;;;;;5029445;28;20045;-47
2021/03/30 10:52:35;;;;;;;1.45;0.60;;;;;;;;;;5020435;28;20034;-49
2021/03/30 10:55:04;;;;;;;5.70;0.65;;;;;;;;;;5026944;28;20116;-46
2021/03/30 10:57:33;;;;;;;2.50;0.60;;;;;;;;;;5024621;28;20034;-49
2021/03/30 11:00:01;;;;;;;0.98;0.60;;;;;;;;;;5028561;28;20042;-48
2021/03/30 11:02:27;;;;;;;1.98;0.60;;;;;;;;;;5027591;28;20045;-50
2021/03/30 11:04:54;;;;;;;0.88;0.68;;;;;;;;;;5022387;28;20099;-47
2021/03/30 11:07:20;;;;;;;3.35;0.63;;;;;;;;;;5015408;28;20041;-48
2021/03/30 11:09:46;;;;;;;1.30;0.77;;;;;;;;;;5019721;28;20553;-47
2021/03/30 11:12:13;;;;;;;0.70;0.70;;;;;;;;;;5023808;28;20045;-48
2021/03/30 11:14:40;;;;;;;0.60;0.60;;;;;;;;;;5026990;28;20132;-49
2021/03/30 11:17:06;;;;;;;1.65;0.60;;;;;;;;;;5023270;28;20383;-46
2021/03/30 11:19:33;;;;;;;1.52;0.60;;;;;;;;;;5022159;28;20033;-50
2021/03/30 11:21:59;;;;;;;0.60;0.60;;;;;;;;;;5019733;28;20039;-50
2021/03/30 11:24:29;;;;;;;0.60;0.60;;;;;;;;;;5026828;28;20072;-49
2021/03/30 11:26:57;;;;;;;1.55;0.70;;;;;;;;;;5021867;28;20049;-48
2021/03/30 11:34:33;;;;;;;1.02;0.60;;;;;;;;;;5020384;28;20069;-48
2021/03/30 11:37:10;;;;;;;0.65;0.60;;;;;;;;;;5018624;28;20049;-51
2021/03/30 11:39:37;;;;;;;0.65;0.65;;;;;;;;;;5024941;28;20045;-47
2021/03/30 11:42:04;;;;;;;0.63;0.60;;;;;;;;;;5023545;28;20037;-50
2021/03/30 11:44:31;;;;;;;0.73;0.60;;;;;;;;;;5014317;28;20060;-50
2021/03/30 11:46:59;;;;;;;0.80;0.77;;;;;;;;;;5018724;28;20046;-51
2021/03/30 11:49:29;;;;;;;0.50;0.50;;;;;;;;;;5013143;28;20034;-51
2021/03/30 11:51:55;;;;;;;0.60;0.60;;;;;;;;;;5018734;28;20050;-52
2021/03/30 11:54:22;;;;;;;0.50;0.50;;;;;;;;;;5024110;28;20069;-49
2021/03/30 11:56:48;;;;;;;0.60;0.60;;;;;;;;;;5014119;28;20042;-49
2021/03/30 11:59:15;;;;;;;0.60;0.60;;;;;;;;;;5018189;28;20433;-47
2021/03/30 12:01:42;;;;;;;1.73;0.70;;;;;;;;;;5029720;28;20064;-48
2021/03/30 12:04:09;;;;;;;0.50;0.50;;;;;;;;;;5016895;28;20034;-48
2021/03/30 12:06:35;;;;;;;3.92;0.60;;;;;;;;;;5016447;28;20351;-50
2021/03/30 12:09:02;;;;;;;0.60;0.60;;;;;;;;;;5023691;28;20383;-51
2021/03/30 12:11:29;;;;;;;0.70;0.60;;;;;;;;;;5016855;28;23688;-50
2021/03/30 12:13:56;;;;;;;1.02;0.60;;;;;;;;;;5011895;28;20054;-51
2021/03/30 12:16:22;;;;;;;1.08;0.50;;;;;;;;;;5018369;28;20371;-49
2021/03/30 12:18:48;;;;;;;0.65;0.60;;;;;;;;;;5018399;28;20406;-49
2021/03/30 12:21:15;;;;;;;0.65;0.57;;;;;;;;;;5021615;28;20110;-49
2021/03/30 12:23:41;;;;;;;0.50;0.50;;;;;;;;;;5022583;28;20038;-48
2021/03/30 12:26:07;;;;;;;1.45;0.40;;;;;;;;;;5025492;28;20041;-48
2021/03/30 12:28:34;;;;;;;0.73;0.50;;;;;;;;;;5019583;28;20047;-48
2021/03/30 12:31:03;;;;;;;1.55;0.50;;;;;;;;;;5017209;28;20073;-48
2021/03/30 12:33:30;;;;;;;0.85;0.80;;;;;;;;;;5017827;28;20042;-51
2021/03/30 12:35:56;;;;;;;1.05;0.50;;;;;;;;;;5024337;28;20038;-50
2021/03/30 12:38:23;;;;;;;1.42;0.50;;;;;;;;;;5028567;28;20055;-49
2021/03/30 12:40:49;;;;;;;0.50;0.50;;;;;;;;;;5019719;28;20045;-49
2021/03/30 12:43:16;;;;;;;0.50;0.50;;;;;;;;;;5013648;28;20056;-52
2021/03/30 12:45:42;;;;;;;0.65;0.50;;;;;;;;;;5016719;28;20113;-48
2021/03/30 12:48:13;;;;;;;0.63;0.50;;;;;;;;;;5022049;28;20035;-52
2021/03/30 12:50:39;;;;;;;0.68;0.50;;;;;;;;;;5027282;28;20045;-49
2021/03/30 12:53:06;;;;;;;0.45;0.45;;;;;;;;;;5020611;28;20057;-50
2021/03/30 12:55:32;;;;;;;0.43;0.40;;;;;;;;;;5020697;28;20035;-48
2021/03/30 12:57:59;;;;;;;0.85;0.52;;;;;;;;;;5020768;28;20489;-50
2021/03/30 13:00:25;;;;;;;1.58;0.50;;;;;;;;;;5025979;28;20041;-48
2021/03/30 13:02:51;;;;;;;1.23;0.50;;;;;;;;;;5023376;28;20072;-50
2021/03/30 13:05:20;;;;;;;1.60;0.45;;;;;;;;;;5022057;28;20116;-49
2021/03/30 13:07:46;;;;;;;0.40;0.40;;;;;;;;;;5013190;28;20062;-50
2021/03/30 13:10:13;;;;;;;2.50;0.40;;;;;;;;;;5016802;28;20764;-50
2021/03/30 13:12:39;;;;;;;1.88;0.50;;;;;;;;;;5016954;28;20071;-49
2021/03/30 13:15:19;;;;;;;0.50;0.50;;;;;;;;;;5019446;28;20034;-48
2021/03/30 13:17:46;;;;;;;1.83;0.80;;;;;;;;;;5022950;28;20136;-53
2021/03/30 13:20:12;;;;;;;0.95;0.43;;;;;;;;;;5026650;28;20041;-51
2021/03/30 13:22:39;;;;;;;1.08;0.50;;;;;;;;;;5022872;28;20038;-51
2021/03/30 13:25:05;;;;;;;0.55;0.50;;;;;;;;;;5026677;28;20379;-53
2021/03/30 13:27:35;;;;;;;0.50;0.50;;;;;;;;;;5016155;28;20096;-49
2021/03/30 13:30:02;;;;;;;0.98;0.50;;;;;;;;;;5024316;28;20054;-46
2021/03/30 13:32:29;;;;;;;2.85;0.50;;;;;;;;;;5015428;28;20084;-50
2021/03/30 13:34:55;;;;;;;0.73;0.50;;;;;;;;;;5019347;28;20088;-51
2021/03/30 13:37:21;;;;;;;1.65;0.50;;;;;;;;;;5011749;28;20046;-50
2021/03/30 13:39:48;;;;;;;0.70;0.70;;;;;;;;;;5018962;28;20053;-48
2021/03/30 13:42:14;;;;;;;1.65;0.52;;;;;;;;;;5026009;28;20470;-48
2021/03/30 13:44:41;;;;;;;2.25;0.57;;;;;;;;;;5024854;28;20076;-49
2021/03/30 13:47:11;;;;;;;1.45;0.52;;;;;;;;;;5020344;28;20445;-48
2021/03/30 13:49:39;;;;;;;0.50;0.50;;;;;;;;;;5012328;28;20038;-48
2021/03/30 13:52:05;;;;;;;0.50;0.50;;;;;;;;;;5017021;28;20038;-48
2021/03/30 13:54:32;;;;;;;0.50;0.50;;;;;;;;;;5020115;28;20026;-49
2021/03/30 13:56:58;;;;;;;2.15;0.50;;;;;;;;;;5020828;28;20045;-48
2021/03/30 13:59:24;;;;;;;0.50;0.50;;;;;;;;;;5022533;28;20042;-48
2021/03/30 14:01:51;;;;;;;0.40;0.40;;;;;;;;;;5013287;28;20034;-49
2021/03/30 14:04:20;;;;;;;0.60;0.50;;;;;;;;;;5018283;28;20046;-48
2021/03/30 14:06:46;;;;;;;1.88;0.50;;;;;;;;;;5015441;28;20049;-51
2021/03/30 14:09:13;;;;;;;1.58;0.60;;;;;;;;;;5015488;28;20382;-49
2021/03/30 14:11:47;;;;;;;0.60;0.60;;;;;;;;;;5023777;28;20117;-49
2021/03/30 14:14:19;;;;;;;0.50;0.50;;;;;;;;;;5012031;28;20049;-48
2021/03/30 14:16:57;;;;;;;3.72;0.57;;;;;;;;;;5015947;28;20534;-49
2021/03/30 14:19:30;;;;;;;1.23;1.13;;;;;;;;;;5013980;28;20040;-48
2021/03/30 14:22:03;;;;;;;1.55;0.60;;;;;;;;;;5015125;28;20065;-49
2021/03/30 14:24:56;;;;;;;1.17;0.70;;;;;;;;;;5022628;28;20676;-50
2021/03/30 14:27:22;;;;;;;0.50;0.50;;;;;;;;;;5010368;28;20081;-47
2021/03/30 14:30:09;;;;;;;1.48;0.50;;;;;;;;;;5025238;28;20048;-49
2021/03/30 14:32:36;;;;;;;1.02;0.50;;;;;;;;;;5027620;28;20037;-48
2021/03/30 14:35:04;;;;;;;1.35;0.60;;;;;;;;;;5020818;28;20116;-47
2021/03/30 14:37:32;;;;;;;0.73;0.60;;;;;;;;;;5022285;28;20038;-49
2021/03/30 14:42:31;;;;;;;;;;;;;;;;;;5024740;28;20044;-46
2021/03/30 14:45:38;;;;;;;1.50;0.50;;;;;;;;;;5025580;28;19925;-48
2021/03/30 14:54:01;;;;;;;0.50;0.50;;;;;;;;;;5022062;28;20116;-50
2021/03/30 14:56:32;;;;;;;1.67;0.50;;;;;;;;;;5013936;28;20042;-49
2021/03/30 14:59:20;;;;;;;1.02;0.52;;;;;;;;;;5017157;28;20426;-50
2021/03/30 15:02:04;;;;;;;0.68;0.50;;;;;;;;;;5020199;28;20132;-46